Reading, PA

11:36 AM EST on December 10, 2016 (GMT -0500)
Reading Regional-Spaatz | | Change Station

Elev 344 ft 40.37 °N, 75.96 °W | Updated 42 minutes ago

Mostly Cloudy
Mostly Cloudy
33 °F
Feels Like 24 °F
N
12
Wind Variable Wind from West

Today
High -- | Low -- °F
--% Chance of Precip.
Yesterday
High -- | Low -- °F
Precip. -- in
Pressure 30.44 in
Visibility 10.0 miles
Clouds Mostly Cloudy 3600 ft
Windchill 24 °F
Dew Point 16 °F
Humidity 50%
Rainfall 0.00 in
Snow Depth Not available.
7:16 AM 4:37 PM
Waxing Gibbous, 84% visible
METAR KRDG 101554Z 28010KT 10SM BKN036 01/M09 A3042 RMK AO2 SLP308 T00061089
Pressure 30.44 in
Visibility 10.0 miles
Clouds Mostly Cloudy 3600 ft
Windchill 24 °F
Dew Point 16 °F
Humidity 50%
Rainfall 0.00 in
Snow Depth Not available.
7:16 AM 4:37 PM
Waxing Gibbous, 84% visible
METAR KRDG 101554Z 28010KT 10SM BKN036 01/M09 A3042 RMK AO2 SLP308 T00061089

10-Day Weather Forecast

Almanac

Astronomy

Dec. 10, 2016 Rise Set
Actual Time
Civil Twilight
Nautical Twilight
Astronomical Twilight
Moon
Length of Visible Light
Length of Day
Tomorrow will be .
, % of the Moon is Illuminated

Today's Extremes

State Highs State Lows

Community

WunderPhotos

Upload Photos

1,956,569 photos uploaded!

WunderBlog® & News

Nearby

Air Quality

  Air Quality AQ Index Pollutant
Not available.

Snow Depth

Station Depth Elevation

Earthquake Activity

City Distance Mag. Time & Date
Minimum magnitude displayed is 2.5.

Coastal Water Temperatures

Place Temperature

Stations

Nearby Weather Stations

Station Location Temp. Windchill Dew Point Humidity Wind Precip. Elev Updated Type
                   

Watches & Warnings

There are currently no watches in effect.